createdAt,value
2023-05-20T00:01:39.307Z,5.97
2023-05-20T00:04:06.145Z,4.83
2023-05-20T00:06:33.638Z,3.27
2023-05-20T00:09:00.509Z,6.33
2023-05-20T00:11:27.256Z,5.30
2023-05-20T00:13:53.856Z,4.33
2023-05-20T00:16:20.502Z,4.17
2023-05-20T00:18:47.302Z,4.57
2023-05-20T00:21:13.976Z,3.60
2023-05-20T00:23:40.665Z,5.30
2023-05-20T00:26:07.279Z,4.33
2023-05-20T00:28:33.892Z,6.27
2023-05-20T00:31:00.958Z,3.37
2023-05-20T00:33:27.709Z,5.40
2023-05-20T00:35:54.326Z,7.10
2023-05-20T00:38:20.975Z,4.67
2023-05-20T00:40:47.584Z,5.03
2023-05-20T00:43:14.252Z,5.20
2023-05-20T00:45:41.262Z,4.93
2023-05-20T00:48:08.417Z,4.20
2023-05-20T00:50:35.684Z,5.40
2023-05-20T00:53:03.202Z,3.90
2023-05-20T00:55:30.138Z,5.37
2023-05-20T00:57:56.989Z,5.73
2023-05-20T01:00:23.690Z,6.13
2023-05-20T01:03:22.406Z,4.63
2023-05-20T01:05:49.192Z,6.73
2023-05-20T01:08:15.952Z,5.83
2023-05-20T01:10:46.697Z,5.50
2023-05-20T01:13:19.916Z,5.37
2023-05-20T01:15:48.606Z,7.23
2023-05-20T01:18:18.240Z,5.87
2023-05-20T01:20:51.007Z,7.47
2023-05-20T01:23:17.641Z,4.30
2023-05-20T01:25:44.259Z,6.80
2023-05-20T01:28:17.593Z,6.03
2023-05-20T01:30:56.256Z,5.33
2023-05-20T01:33:25.421Z,5.40
2023-05-20T01:35:52.777Z,6.73
2023-05-20T01:38:20.364Z,4.87
2023-05-20T01:40:48.836Z,4.53
2023-05-20T01:43:17.764Z,4.10
2023-05-20T01:45:44.905Z,7.47
2023-05-20T01:48:12.829Z,4.10
2023-05-20T01:50:40.318Z,5.33
2023-05-20T01:53:09.529Z,4.77
2023-05-20T01:55:36.277Z,6.40
2023-05-20T01:58:03.350Z,4.40
2023-05-20T02:00:30.613Z,4.50
2023-05-20T02:02:57.431Z,6.77
2023-05-20T02:05:24.078Z,5.60
2023-05-20T02:07:50.887Z,7.20
2023-05-20T02:10:17.631Z,6.23
2023-05-20T02:12:44.221Z,5.27
2023-05-20T02:15:10.998Z,8.33
2023-05-20T02:17:37.728Z,4.47
2023-05-20T02:20:06.575Z,10.60
2023-05-20T02:22:33.433Z,4.10
2023-05-20T02:25:00.027Z,5.13
2023-05-20T02:27:26.634Z,6.30
2023-05-20T02:29:53.338Z,5.23
2023-05-20T02:32:20.735Z,5.93
2023-05-20T02:34:47.388Z,4.73
2023-05-20T02:37:14.056Z,4.93
2023-05-20T02:39:40.768Z,6.90
2023-05-20T02:42:07.492Z,6.40
2023-05-20T02:44:34.145Z,5.73
2023-05-20T02:47:00.868Z,6.80
2023-05-20T02:49:27.475Z,6.00
2023-05-20T02:51:54.082Z,5.40
2023-05-20T02:54:20.727Z,5.50
2023-05-20T02:56:47.302Z,4.90
2023-05-20T02:59:13.975Z,5.37
2023-05-20T03:01:41.166Z,7.10
2023-05-20T03:04:08.463Z,5.03
2023-05-20T03:06:35.118Z,4.80
2023-05-20T03:09:01.885Z,5.00
2023-05-20T03:11:28.588Z,4.67
2023-05-20T03:13:55.271Z,7.47
2023-05-20T03:16:22.170Z,5.67
2023-05-20T03:18:49.658Z,6.60
2023-05-20T03:21:16.301Z,9.50
2023-05-20T03:23:42.971Z,6.93
2023-05-20T03:26:09.606Z,4.63
2023-05-20T03:28:36.450Z,6.13
2023-05-20T03:31:03.192Z,5.30
2023-05-20T03:33:30.150Z,4.67
2023-05-20T03:35:56.759Z,5.70
2023-05-20T03:38:23.368Z,3.87
2023-05-20T03:40:49.962Z,4.87
2023-05-20T03:43:16.608Z,6.03
2023-05-20T03:45:43.202Z,4.60
2023-05-20T03:48:09.881Z,6.23
2023-05-20T03:50:36.530Z,6.77
2023-05-20T03:53:03.205Z,5.40
2023-05-20T03:55:29.893Z,5.87
2023-05-20T03:57:56.905Z,4.10
2023-05-20T04:00:24.070Z,6.87
2023-05-20T04:02:50.907Z,9.37
2023-05-20T04:05:17.602Z,5.87
2023-05-20T04:07:44.277Z,5.57
2023-05-20T04:10:11.495Z,5.27
2023-05-20T04:12:38.396Z,7.27
2023-05-20T04:15:05.600Z,5.33
2023-05-20T04:17:32.500Z,5.73
2023-05-20T04:19:59.920Z,8.03
2023-05-20T04:22:27.324Z,6.27
2023-05-20T04:24:54.107Z,6.80
2023-05-20T04:27:21.501Z,4.70
2023-05-20T04:29:48.251Z,7.27
2023-05-20T04:32:18.691Z,5.27
2023-05-20T04:34:46.298Z,5.77
2023-05-20T04:37:13.280Z,5.53
2023-05-20T04:39:40.218Z,5.00
2023-05-20T04:42:06.886Z,5.00
2023-05-20T04:44:33.620Z,5.93
2023-05-20T04:47:00.331Z,7.87
2023-05-20T04:49:27.258Z,6.60
2023-05-20T04:51:55.487Z,6.83
2023-05-20T04:54:22.165Z,7.90
2023-05-20T04:56:48.774Z,6.13
2023-05-20T04:59:15.435Z,6.17
2023-05-20T05:01:42.277Z,5.87
2023-05-20T05:04:08.924Z,5.43
2023-05-20T05:06:36.221Z,5.90
2023-05-20T05:09:03.037Z,5.47
2023-05-20T05:11:29.708Z,5.93
2023-05-20T05:13:56.572Z,7.87
2023-05-20T05:16:23.309Z,5.63
2023-05-20T05:18:50.051Z,4.77
2023-05-20T05:21:16.847Z,8.17
2023-05-20T05:23:43.723Z,6.33
2023-05-20T05:26:10.446Z,5.70
2023-05-20T05:28:37.129Z,7.13
2023-05-20T05:31:03.881Z,6.27
2023-05-20T05:33:30.914Z,6.53
2023-05-20T05:35:59.087Z,6.87
2023-05-20T05:38:26.050Z,7.47
2023-05-20T05:40:53.404Z,7.70
2023-05-20T05:43:20.034Z,6.40
2023-05-20T05:45:46.737Z,7.13
2023-05-20T05:48:13.536Z,6.63
2023-05-20T05:50:44.802Z,6.57
2023-05-20T05:53:11.759Z,7.40
2023-05-20T05:55:38.405Z,7.07
2023-05-20T05:58:05.042Z,5.40
2023-05-20T06:00:31.653Z,8.77
2023-05-20T06:02:58.721Z,7.07
2023-05-20T06:05:26.901Z,7.93
2023-05-20T06:07:55.629Z,6.47
2023-05-20T06:10:22.247Z,5.53
2023-05-20T06:12:49.114Z,8.37
2023-05-20T06:15:16.058Z,6.57
2023-05-20T06:17:44.225Z,8.33
2023-05-20T06:20:11.356Z,7.07
2023-05-20T06:22:38.038Z,6.47
2023-05-20T06:25:06.248Z,7.93
2023-05-20T06:27:33.260Z,8.27
2023-05-20T06:29:59.888Z,6.27
2023-05-20T06:32:27.530Z,6.43
2023-05-20T06:34:54.148Z,9.77
2023-05-20T06:37:20.987Z,9.67
2023-05-20T06:39:51.390Z,9.97
2023-05-20T06:42:18.160Z,6.70
2023-05-20T06:44:44.795Z,7.17
2023-05-20T06:47:11.719Z,8.37
2023-05-20T06:49:38.398Z,6.53
2023-05-20T06:52:05.690Z,6.73
2023-05-20T06:54:36.480Z,5.93
2023-05-20T06:57:03.068Z,5.33
2023-05-20T06:59:29.667Z,6.07
2023-05-20T07:01:56.284Z,5.83
2023-05-20T07:04:22.991Z,6.97
2023-05-20T07:06:49.584Z,6.27
2023-05-20T07:09:16.414Z,6.87
2023-05-20T07:11:43.033Z,8.20
2023-05-20T07:14:10.172Z,7.87
2023-05-20T07:16:36.992Z,6.60
2023-05-20T07:19:04.310Z,8.03
2023-05-20T07:21:31.271Z,6.73
2023-05-20T07:23:57.890Z,6.53
2023-05-20T07:26:24.501Z,6.97
2023-05-20T07:28:51.937Z,6.17
2023-05-20T07:31:18.648Z,7.77
2023-05-20T07:33:45.456Z,7.97
2023-05-20T07:36:12.059Z,7.97
2023-05-20T07:38:39.721Z,6.27
2023-05-20T07:41:07.936Z,7.00
2023-05-20T07:43:34.568Z,9.23
2023-05-20T07:46:01.248Z,6.97
2023-05-20T07:48:27.872Z,8.37
2023-05-20T07:50:57.202Z,8.13
2023-05-20T07:53:23.831Z,10.90
2023-05-20T07:55:50.588Z,9.17
2023-05-20T07:58:17.230Z,6.23
2023-05-20T08:00:45.029Z,7.13
2023-05-20T08:03:11.953Z,9.17
2023-05-20T08:05:38.994Z,5.73
2023-05-20T08:08:05.640Z,9.13
2023-05-20T08:10:32.279Z,6.70
2023-05-20T08:12:58.899Z,8.37
2023-05-20T08:15:25.692Z,6.50
2023-05-20T08:17:52.414Z,8.40
2023-05-20T08:20:20.186Z,6.90
2023-05-20T08:22:47.402Z,7.05
2023-05-20T08:25:15.015Z,7.28
2023-05-20T08:27:41.902Z,6.00
2023-05-20T08:30:09.912Z,7.93
2023-05-20T08:32:37.571Z,5.40
2023-05-20T08:35:05.286Z,8.70
2023-05-20T08:37:31.992Z,5.80
2023-05-20T08:39:58.618Z,6.07
2023-05-20T08:42:26.876Z,5.20
2023-05-20T08:44:54.374Z,7.70
2023-05-20T08:47:22.009Z,6.75
2023-05-20T08:49:51.483Z,6.60
2023-05-20T08:52:21.030Z,5.33
2023-05-20T08:54:49.780Z,6.90
2023-05-20T08:57:16.453Z,6.63
2023-05-20T08:59:44.688Z,8.25
2023-05-20T09:02:11.687Z,8.02
2023-05-20T09:04:38.956Z,6.50
2023-05-20T09:07:05.933Z,7.50
2023-05-20T09:09:34.341Z,7.73
2023-05-20T09:12:03.214Z,6.03
2023-05-20T09:14:30.914Z,5.55
2023-05-20T09:16:57.753Z,7.30
2023-05-20T09:19:25.017Z,12.95
2023-05-20T09:21:54.079Z,5.80
2023-05-20T09:24:24.320Z,6.97
2023-05-20T09:26:51.548Z,5.43
2023-05-20T09:29:19.623Z,6.32
2023-05-20T09:31:46.386Z,6.90
2023-05-20T09:34:13.781Z,6.10
2023-05-20T09:36:42.714Z,7.95
2023-05-20T09:39:14.454Z,5.72
2023-05-20T09:41:55.664Z,6.40
2023-05-20T09:44:23.378Z,7.97
2023-05-20T09:46:52.471Z,8.52
2023-05-20T09:49:20.643Z,9.13
2023-05-20T09:51:48.481Z,7.95
2023-05-20T09:54:17.983Z,11.37
2023-05-20T09:56:46.254Z,8.80
2023-05-20T09:59:16.829Z,11.32
2023-05-20T10:01:44.939Z,9.02
2023-05-20T10:04:13.846Z,9.07
2023-05-20T10:06:50.705Z,9.67
2023-05-20T10:09:45.705Z,7.85
2023-05-20T10:12:31.178Z,10.60
2023-05-20T10:15:23.881Z,8.50
2023-05-20T10:18:02.254Z,8.27
2023-05-20T10:20:29.322Z,11.80
2023-05-20T10:22:57.987Z,8.05
2023-05-20T10:25:28.141Z,9.33
2023-05-20T10:28:08.145Z,9.20
2023-05-20T10:30:35.914Z,8.17
2023-05-20T10:33:07.062Z,8.65
2023-05-20T10:35:34.069Z,8.30
2023-05-20T10:38:12.081Z,8.73
2023-05-20T10:40:39.098Z,9.93
2023-05-20T10:43:13.688Z,9.93
2023-05-20T10:45:49.718Z,10.45
2023-05-20T10:48:31.476Z,8.32
2023-05-20T10:51:00.388Z,8.70
2023-05-20T10:53:33.939Z,9.80
2023-05-20T10:56:01.548Z,8.45
2023-05-20T10:58:28.276Z,8.10
2023-05-20T11:00:56.827Z,11.30
2023-05-20T11:03:25.027Z,10.43
2023-05-20T11:05:52.096Z,11.40
2023-05-20T11:08:28.548Z,8.40
2023-05-20T11:10:58.905Z,9.40
2023-05-20T11:13:26.277Z,8.20
2023-05-20T11:15:53.107Z,11.90
2023-05-20T11:18:19.843Z,9.65
2023-05-20T11:20:47.248Z,9.85
2023-05-20T11:23:15.347Z,9.70
2023-05-20T11:25:42.158Z,9.20
2023-05-20T11:28:14.096Z,10.02
2023-05-20T11:30:42.727Z,8.10
2023-05-20T11:33:12.771Z,9.98
2023-05-20T11:35:45.925Z,9.23
2023-05-20T11:38:12.863Z,12.30
2023-05-20T11:40:50.709Z,8.70
2023-05-20T11:43:18.964Z,8.23
2023-05-20T11:45:47.970Z,9.75
2023-05-20T11:48:17.683Z,9.15
2023-05-20T11:50:46.566Z,8.25
2023-05-20T11:53:18.700Z,8.77
2023-05-20T11:55:50.048Z,10.45
2023-05-20T11:58:24.382Z,10.48
2023-05-20T12:00:59.122Z,8.52
2023-05-20T12:03:32.959Z,9.05
2023-05-20T12:06:02.329Z,9.18
2023-05-20T12:08:29.153Z,8.40
2023-05-20T12:10:56.104Z,10.98
2023-05-20T12:13:23.829Z,7.85
2023-05-20T12:15:50.549Z,7.70
2023-05-20T12:18:17.238Z,9.65
2023-05-20T12:20:43.876Z,9.55
2023-05-20T12:23:10.538Z,9.88
2023-05-20T12:25:37.181Z,9.88
2023-05-20T12:28:04.061Z,8.85
2023-05-20T12:30:30.988Z,11.15
2023-05-20T12:32:57.680Z,8.82
2023-05-20T12:35:38.517Z,9.68
2023-05-20T12:38:05.344Z,8.98
2023-05-20T12:40:32.189Z,10.38
2023-05-20T12:43:04.437Z,8.48
2023-05-20T12:45:31.156Z,10.70
2023-05-20T12:47:58.084Z,9.52
2023-05-20T12:50:25.672Z,9.68
2023-05-20T12:52:52.514Z,10.30
2023-05-20T12:55:19.338Z,11.80
2023-05-20T12:57:47.165Z,8.88
2023-05-20T13:00:14.463Z,10.77
2023-05-20T13:02:42.707Z,12.30
2023-05-20T13:05:10.417Z,8.98
2023-05-20T13:07:37.327Z,8.32
2023-05-20T13:10:04.335Z,14.48
2023-05-20T13:12:30.925Z,10.05
2023-05-20T13:14:57.572Z,9.25
2023-05-20T13:17:24.214Z,11.30
2023-05-20T13:19:51.295Z,10.07
2023-05-20T13:22:18.005Z,8.13
2023-05-20T13:24:44.625Z,9.60
2023-05-20T13:27:11.392Z,10.50
2023-05-20T13:29:38.044Z,8.82
2023-05-20T13:32:04.963Z,9.98
2023-05-20T13:34:31.848Z,8.07
2023-05-20T13:36:58.517Z,8.90
2023-05-20T13:39:25.284Z,11.13
2023-05-20T13:41:53.533Z,8.45
2023-05-20T13:44:20.680Z,11.80
2023-05-20T13:46:47.325Z,7.35
2023-05-20T13:49:13.976Z,9.32
2023-05-20T13:51:40.729Z,11.93
2023-05-20T13:54:07.343Z,9.48
2023-05-20T13:56:34.282Z,8.70
2023-05-20T13:59:01.108Z,8.43
2023-05-20T14:01:30.036Z,10.02
2023-05-20T14:03:56.808Z,7.70
2023-05-20T14:06:23.635Z,9.07
2023-05-20T14:08:50.357Z,7.53
2023-05-20T14:11:16.992Z,8.38
2023-05-20T14:13:44.988Z,11.20
2023-05-20T14:16:11.638Z,11.23
2023-05-20T14:18:38.284Z,8.50
2023-05-20T14:21:05.202Z,7.78
2023-05-20T14:23:31.826Z,7.10
2023-05-20T14:25:58.537Z,8.57
2023-05-20T14:28:25.840Z,8.20
2023-05-20T14:30:54.491Z,9.63
2023-05-20T14:33:21.080Z,8.45
2023-05-20T14:35:47.680Z,8.98
2023-05-20T14:38:14.432Z,7.55
2023-05-20T14:40:41.071Z,7.70
2023-05-20T14:43:07.674Z,7.53
2023-05-20T14:45:34.374Z,9.00
2023-05-20T14:48:01.146Z,7.05
2023-05-20T14:50:27.852Z,9.25
2023-05-20T14:52:54.458Z,9.93
2023-05-20T14:55:21.093Z,6.65
2023-05-20T14:57:48.174Z,8.90
2023-05-20T15:00:15.379Z,6.70
2023-05-20T15:02:42.107Z,7.32
2023-05-20T15:05:11.820Z,9.90
2023-05-20T15:07:38.741Z,7.30
2023-05-20T15:10:05.798Z,7.57
2023-05-20T15:12:32.530Z,9.48
2023-05-20T15:14:59.144Z,6.75
2023-05-20T15:17:28.930Z,7.47
2023-05-20T15:19:55.615Z,7.82
2023-05-20T15:22:22.229Z,7.75
2023-05-20T15:24:48.847Z,6.88
2023-05-20T15:27:15.472Z,10.90
2023-05-20T15:29:42.120Z,6.82
2023-05-20T15:32:08.905Z,6.82
2023-05-20T15:34:35.531Z,8.35
2023-05-20T15:37:02.136Z,6.65
2023-05-20T15:39:28.796Z,8.30
2023-05-20T15:41:56.080Z,8.48
2023-05-20T15:44:22.729Z,6.93
2023-05-20T15:46:49.344Z,10.05
2023-05-20T15:49:16.062Z,7.00
2023-05-20T15:51:52.006Z,8.60
2023-05-20T15:54:25.984Z,7.68
2023-05-20T15:56:52.651Z,8.00
2023-05-20T15:59:19.237Z,7.40
2023-05-20T16:01:45.968Z,6.53
2023-05-20T16:04:12.821Z,7.63
2023-05-20T16:06:39.672Z,6.60
2023-05-20T16:09:06.438Z,6.18
2023-05-20T16:11:33.154Z,5.97
2023-05-20T16:13:59.831Z,6.57
2023-05-20T16:16:26.548Z,6.25
2023-05-20T16:18:53.468Z,8.75
2023-05-20T16:21:21.253Z,10.18
2023-05-20T16:23:47.904Z,7.18
2023-05-20T16:26:14.662Z,7.35
2023-05-20T16:28:41.248Z,6.07
2023-05-20T16:31:07.891Z,9.15
2023-05-20T16:33:34.512Z,8.15
2023-05-20T16:36:01.319Z,7.05
2023-05-20T16:38:27.977Z,7.22
2023-05-20T16:40:54.618Z,8.48
2023-05-20T16:43:21.277Z,8.20
2023-05-20T16:45:47.977Z,7.57
2023-05-20T16:48:14.660Z,6.25
2023-05-20T16:50:43.034Z,6.90
2023-05-20T16:53:09.680Z,6.45
2023-05-20T16:58:04.680Z,8.48
2023-05-20T17:00:31.459Z,8.57
2023-05-20T17:02:58.227Z,7.35
2023-05-20T17:05:25.512Z,6.70
2023-05-20T17:07:52.677Z,6.60
2023-05-20T17:10:19.362Z,6.63
2023-05-20T17:12:46.206Z,9.90
2023-05-20T17:15:12.812Z,6.53
2023-05-20T17:17:39.467Z,9.70
2023-05-20T17:20:10.310Z,8.20
2023-05-20T17:22:36.911Z,7.95
2023-05-20T17:25:03.607Z,7.28
2023-05-20T17:27:30.404Z,8.85
2023-05-20T17:29:58.520Z,9.55
2023-05-20T17:32:25.499Z,7.75
2023-05-20T17:34:52.144Z,7.25
2023-05-20T17:37:18.760Z,6.82
2023-05-20T17:39:45.425Z,7.53
2023-05-20T17:42:12.140Z,8.65
2023-05-20T17:44:38.804Z,7.90
2023-05-20T17:47:05.436Z,8.85
2023-05-20T17:49:32.051Z,6.75
2023-05-20T17:51:58.653Z,8.90
2023-05-20T17:54:25.688Z,10.13
2023-05-20T17:56:52.301Z,6.95
2023-05-20T17:59:18.988Z,9.48
2023-05-20T18:01:46.601Z,7.60
2023-05-20T18:04:13.459Z,9.52
2023-05-20T18:06:40.470Z,8.25
2023-05-20T18:09:07.114Z,8.65
2023-05-20T18:11:34.882Z,7.70
2023-05-20T18:14:02.265Z,7.05
2023-05-20T18:16:30.234Z,7.35
2023-05-20T18:18:57.590Z,7.88
2023-05-20T18:21:24.900Z,7.18
2023-05-20T18:23:51.831Z,9.57
2023-05-20T18:26:18.493Z,7.70
2023-05-20T18:28:45.138Z,8.50
2023-05-20T18:31:11.946Z,8.50
2023-05-20T18:33:38.858Z,7.72
2023-05-20T18:36:06.011Z,6.82
2023-05-20T18:38:32.969Z,8.80
2023-05-20T18:40:59.783Z,8.80
2023-05-20T18:43:26.654Z,9.50
2023-05-20T18:45:53.516Z,7.85
2023-05-20T18:48:26.524Z,8.23
2023-05-20T18:50:54.736Z,7.65
2023-05-20T18:53:21.542Z,9.15
2023-05-20T18:55:48.401Z,9.73
2023-05-20T18:58:15.049Z,8.20
2023-05-20T19:00:42.117Z,9.35
2023-05-20T19:03:08.852Z,7.03
2023-05-20T19:05:35.779Z,9.13
2023-05-20T19:08:05.564Z,9.15
2023-05-20T19:10:32.833Z,8.18
2023-05-20T19:12:59.723Z,8.85
2023-05-20T19:15:26.599Z,8.02
2023-05-20T19:17:53.328Z,8.88
2023-05-20T19:20:20.141Z,9.55
2023-05-20T19:22:47.145Z,10.35
2023-05-20T19:25:13.825Z,12.57
2023-05-20T19:27:40.451Z,10.35
2023-05-20T19:30:10.527Z,10.13
2023-05-20T19:32:38.016Z,8.85
2023-05-20T19:35:07.862Z,9.90
2023-05-20T19:37:34.530Z,9.90
2023-05-20T19:40:01.359Z,10.48
2023-05-20T19:42:28.099Z,9.32
2023-05-20T19:44:55.665Z,9.27
2023-05-20T19:47:22.671Z,8.30
2023-05-20T19:49:49.397Z,10.48
2023-05-20T19:52:16.166Z,8.40
2023-05-20T19:54:43.179Z,8.27
2023-05-20T19:57:10.083Z,11.88
2023-05-20T19:59:38.064Z,10.20
2023-05-20T20:02:05.998Z,7.75
2023-05-20T20:04:32.777Z,10.65
2023-05-20T20:06:59.989Z,8.57
2023-05-20T20:09:26.997Z,9.07
2023-05-20T20:11:53.934Z,9.00
2023-05-20T20:14:21.159Z,8.20
2023-05-20T20:16:49.338Z,8.38
2023-05-20T20:19:22.800Z,8.10
2023-05-20T20:21:52.967Z,10.38
2023-05-20T20:24:20.338Z,8.50
2023-05-20T20:26:47.552Z,9.25
2023-05-20T20:29:14.910Z,8.85
2023-05-20T20:31:41.811Z,8.05
2023-05-20T20:34:08.557Z,9.40
2023-05-20T20:36:35.178Z,12.93
2023-05-20T20:39:04.909Z,9.35
2023-05-20T20:41:32.529Z,14.13
2023-05-20T20:44:03.370Z,9.65
2023-05-20T20:46:30.031Z,8.40
2023-05-20T20:48:56.752Z,8.65
2023-05-20T20:51:23.426Z,11.20
2023-05-20T20:53:52.084Z,8.85
2023-05-20T20:56:18.724Z,8.25
2023-05-20T20:58:46.329Z,11.10
2023-05-20T21:01:17.180Z,9.32
2023-05-20T21:03:44.529Z,10.48
2023-05-20T21:06:12.915Z,10.23
2023-05-20T21:08:39.585Z,12.48
2023-05-20T21:11:06.396Z,9.13
2023-05-20T21:13:33.005Z,9.30
2023-05-20T21:15:59.994Z,11.10
2023-05-20T21:18:26.736Z,9.55
2023-05-20T21:20:54.512Z,11.07
2023-05-20T21:23:22.160Z,11.30
2023-05-20T21:25:49.435Z,10.13
2023-05-20T21:28:16.464Z,11.50
2023-05-20T21:30:44.814Z,9.80
2023-05-20T21:33:11.597Z,10.88
2023-05-20T21:35:38.452Z,10.43
2023-05-20T21:38:05.344Z,9.85
2023-05-20T21:40:31.992Z,11.52
2023-05-20T21:42:58.619Z,11.25
2023-05-20T21:45:25.217Z,9.65
2023-05-20T21:47:51.950Z,9.80
2023-05-20T21:50:18.579Z,10.93
2023-05-20T21:52:45.245Z,9.25
2023-05-20T21:55:11.853Z,11.68
2023-05-20T21:57:38.596Z,12.73
2023-05-20T22:00:14.159Z,13.27
2023-05-20T22:02:41.492Z,13.02
2023-05-20T22:05:08.621Z,11.43
2023-05-20T22:07:35.306Z,11.10
2023-05-20T22:10:02.268Z,12.98
2023-05-20T22:12:29.235Z,13.10
2023-05-20T22:14:56.052Z,12.52
2023-05-20T22:17:23.895Z,11.27
2023-05-20T22:19:50.534Z,12.30
2023-05-20T22:22:17.145Z,10.73
2023-05-20T22:24:43.835Z,13.20
2023-05-20T22:27:10.610Z,10.93
2023-05-20T22:29:37.517Z,11.90
2023-05-20T22:32:04.518Z,14.07
2023-05-20T22:34:31.147Z,12.82
2023-05-20T22:36:58.141Z,11.60
2023-05-20T22:39:24.844Z,11.40
2023-05-20T22:41:51.508Z,11.77
2023-05-20T22:44:18.176Z,11.70
2023-05-20T22:46:44.880Z,12.60
2023-05-20T22:49:12.773Z,12.65
2023-05-20T22:51:39.382Z,13.30
2023-05-20T22:54:06.898Z,14.98
2023-05-20T22:56:36.896Z,14.02
2023-05-20T22:59:03.543Z,12.32
2023-05-20T23:01:30.190Z,15.65
2023-05-20T23:03:56.860Z,14.48
2023-05-20T23:06:23.527Z,12.60
2023-05-20T23:08:50.150Z,12.38
2023-05-20T23:11:16.783Z,12.93
2023-05-20T23:13:43.452Z,13.43
2023-05-20T23:16:10.448Z,14.05
2023-05-20T23:18:37.236Z,14.82
2023-05-20T23:21:04.203Z,12.90
2023-05-20T23:23:32.200Z,12.75
2023-05-20T23:25:59.797Z,13.43
2023-05-20T23:28:26.723Z,20.08
2023-05-20T23:30:53.399Z,15.70
2023-05-20T23:33:24.641Z,16.77
2023-05-20T23:35:52.035Z,13.82
2023-05-20T23:38:18.724Z,13.93
2023-05-20T23:40:45.343Z,12.85
2023-05-20T23:43:12.119Z,14.70
2023-05-20T23:45:38.699Z,15.85
2023-05-20T23:48:06.992Z,16.17
2023-05-20T23:50:33.785Z,16.05
2023-05-20T23:53:00.406Z,15.63
2023-05-20T23:55:28.441Z,17.27
2023-05-20T23:57:55.367Z,15.57
